Time;durP1;ratioP1;P1;durP2;ratioP2;P2;SDS_P1;SDS_P2;PMS_P1;PMS_P2;Temp;Humidity;BMP_temperature;BMP_pressure;BME280_temperature;BME280_humidity;BME280_pressure;Samples;Min_cycle;Max_cycle;Signal;HPM_P1;HPM_P2
2023/06/09 00:01:37;;;;;;;15.93;6.20;;;12.80;99.90;;;;;;5011730;28;20049;-76
2023/06/09 00:04:03;;;;;;;14.23;6.85;;;12.80;99.90;;;;;;4995118;28;20041;-75
2023/06/09 00:06:30;;;;;;;19.65;7.93;;;12.80;99.90;;;;;;5012713;28;20045;-74
2023/06/09 00:08:59;;;;;;;14.65;6.63;;;12.80;99.90;;;;;;5012509;28;20540;-73
2023/06/09 00:11:26;;;;;;;24.40;8.02;;;12.80;99.90;;;;;;4995217;28;20046;-74
2023/06/09 00:13:53;;;;;;;20.67;7.57;;;12.80;99.90;;;;;;4995202;28;20030;-74
2023/06/09 00:16:18;;;;;;;18.35;7.60;;;12.80;99.90;;;;;;5012405;28;20686;-74
2023/06/09 00:18:45;;;;;;;19.75;7.07;;;12.70;99.90;;;;;;4994919;28;20037;-74
2023/06/09 00:21:17;;;;;;;22.40;7.43;;;12.80;99.90;;;;;;5011220;28;20074;-74
2023/06/09 00:23:44;;;;;;;22.27;6.80;;;12.80;99.90;;;;;;4994794;28;20080;-74
2023/06/09 00:26:10;;;;;;;15.30;5.55;;;12.80;99.90;;;;;;5010708;28;20095;-74
2023/06/09 00:28:36;;;;;;;14.20;5.85;;;12.70;99.90;;;;;;5010792;28;20046;-73
2023/06/09 00:31:02;;;;;;;22.70;6.15;;;12.70;99.90;;;;;;5011105;28;20108;-74
2023/06/09 00:33:27;;;;;;;11.23;5.50;;;12.70;99.90;;;;;;4994715;28;20426;-74
2023/06/09 00:35:53;;;;;;;17.55;7.30;;;12.80;99.90;;;;;;5010854;28;20050;-74
2023/06/09 00:38:18;;;;;;;23.55;6.82;;;12.80;99.90;;;;;;5012044;28;20040;-74
2023/06/09 00:40:44;;;;;;;19.83;7.45;;;12.80;99.90;;;;;;5011904;28;20034;-74
2023/06/09 00:43:09;;;;;;;18.08;6.70;;;12.70;99.90;;;;;;4994582;28;20052;-74
2023/06/09 00:45:35;;;;;;;17.75;6.85;;;12.80;99.90;;;;;;5012101;28;20040;-74
2023/06/09 00:48:01;;;;;;;20.73;7.38;;;12.70;99.90;;;;;;5010613;28;20081;-74
2023/06/09 00:50:27;;;;;;;20.63;8.45;;;12.70;99.90;;;;;;5010791;28;20042;-74
2023/06/09 00:52:53;;;;;;;21.45;8.45;;;12.60;99.90;;;;;;5010757;28;20520;-74
2023/06/09 00:55:19;;;;;;;20.90;7.45;;;12.60;99.90;;;;;;5010560;28;20045;-73
2023/06/09 00:57:47;;;;;;;26.00;8.15;;;12.60;99.90;;;;;;5010390;28;20041;-74
2023/06/09 01:00:16;;;;;;;18.25;6.53;;;12.60;99.90;;;;;;5011949;28;20034;-74
2023/06/09 01:02:42;;;;;;;25.40;7.78;;;12.60;99.90;;;;;;5010565;28;20041;-74
2023/06/09 01:05:09;;;;;;;20.73;7.63;;;12.50;99.90;;;;;;5010707;28;20042;-74
2023/06/09 01:07:57;;;;;;;20.60;6.60;;;12.60;99.90;;;;;;5010380;28;20088;-74
2023/06/09 01:10:34;;;;;;;20.55;6.72;;;12.60;99.90;;;;;;5013453;28;20049;-74
2023/06/09 01:13:47;;;;;;;17.38;7.57;;;12.50;99.90;;;;;;5015809;28;20543;-74
2023/06/09 01:16:23;;;;;;;20.15;7.93;;;12.50;99.90;;;;;;4996679;28;20417;-73
2023/06/09 01:18:51;;;;;;;21.17;8.25;;;12.40;99.90;;;;;;5015307;28;20058;-74
2023/06/09 01:21:40;;;;;;;22.30;8.00;;;12.50;99.90;;;;;;5014475;28;20567;-73
2023/06/09 01:24:09;;;;;;;16.13;6.50;;;12.40;99.90;;;;;;5015162;28;20084;-73
2023/06/09 01:26:38;;;;;;;14.93;7.32;;;12.40;99.90;;;;;;4997858;28;20042;-73
2023/06/09 01:29:05;;;;;;;21.02;7.20;;;12.40;99.90;;;;;;5015306;28;20044;-74
2023/06/09 01:31:32;;;;;;;19.13;8.38;;;12.30;99.90;;;;;;5014198;28;20144;-73
2023/06/09 01:34:00;;;;;;;23.17;9.07;;;12.40;99.90;;;;;;5014214;28;20034;-73
2023/06/09 01:36:26;;;;;;;20.48;8.30;;;12.30;99.90;;;;;;5013893;28;20080;-74
2023/06/09 01:38:52;;;;;;;19.77;9.32;;;12.40;99.90;;;;;;4997805;28;20053;-74
2023/06/09 01:41:17;;;;;;;24.52;9.63;;;12.40;99.90;;;;;;5014044;28;20493;-74
2023/06/09 01:43:43;;;;;;;20.80;7.45;;;12.40;99.90;;;;;;5014154;28;20040;-74
2023/06/09 01:46:09;;;;;;;20.30;8.43;;;12.40;99.90;;;;;;5013728;28;20494;-74
2023/06/09 01:48:50;;;;;;;25.30;8.68;;;12.40;99.90;;;;;;5013746;28;20565;-74
2023/06/09 01:51:36;;;;;;;24.15;9.88;;;12.30;99.90;;;;;;5015293;28;20417;-75
2023/06/09 01:54:09;;;;;;;28.00;9.02;;;12.30;99.90;;;;;;5013643;28;20054;-72
2023/06/09 01:56:44;;;;;;;26.13;9.63;;;12.30;99.90;;;;;;5014853;28;20502;-73
2023/06/09 01:59:17;;;;;;;27.17;10.93;;;12.30;99.90;;;;;;5014942;28;20112;-72
2023/06/09 02:01:46;;;;;;;32.63;10.73;;;12.40;99.90;;;;;;5013608;28;20069;-72
2023/06/09 02:04:13;;;;;;;21.20;9.15;;;12.40;99.90;;;;;;5013076;28;20042;-72
2023/06/09 02:06:40;;;;;;;22.42;8.88;;;12.30;99.90;;;;;;5013584;28;20050;-72
2023/06/09 02:09:05;;;;;;;21.17;8.80;;;12.40;99.90;;;;;;5014783;28;20091;-72
2023/06/09 02:11:31;;;;;;;22.75;9.27;;;12.30;99.90;;;;;;4997103;28;20397;-73
2023/06/09 02:13:57;;;;;;;23.23;9.35;;;12.40;99.90;;;;;;5014510;28;20042;-72
2023/06/09 02:16:24;;;;;;;17.88;9.07;;;12.30;99.90;;;;;;5013208;28;20429;-72
2023/06/09 02:18:50;;;;;;;24.45;8.82;;;12.40;99.90;;;;;;5013237;28;20046;-73
2023/06/09 02:21:15;;;;;;;23.20;9.48;;;12.40;99.90;;;;;;5013094;28;20041;-72
2023/06/09 02:23:41;;;;;;;25.80;9.18;;;12.30;99.90;;;;;;5013046;28;20041;-72
2023/06/09 02:26:07;;;;;;;29.15;10.38;;;12.40;99.90;;;;;;4996588;28;20045;-71
2023/06/09 02:28:33;;;;;;;22.45;9.93;;;12.30;99.90;;;;;;5013103;28;20456;-72
2023/06/09 02:30:59;;;;;;;23.27;9.52;;;12.40;99.90;;;;;;4996878;28;20042;-72
2023/06/09 02:33:25;;;;;;;30.23;9.73;;;12.20;99.90;;;;;;5013214;28;20430;-73
2023/06/09 02:35:52;;;;;;;21.88;9.50;;;12.30;99.90;;;;;;5013119;28;20397;-73
2023/06/09 02:38:18;;;;;;;28.08;9.32;;;12.30;99.90;;;;;;5014283;28;20057;-73
2023/06/09 02:40:46;;;;;;;23.25;9.18;;;12.30;99.90;;;;;;4996423;28;20124;-72
2023/06/09 02:43:12;;;;;;;26.08;9.65;;;12.20;99.90;;;;;;5014187;28;20041;-72
2023/06/09 02:45:38;;;;;;;24.08;11.48;;;12.30;99.90;;;;;;5014191;28;20030;-72
2023/06/09 02:48:04;;;;;;;25.35;10.57;;;12.30;99.90;;;;;;5012714;28;20044;-73
2023/06/09 02:50:30;;;;;;;27.40;9.73;;;12.20;99.90;;;;;;5012473;28;20050;-73
2023/06/09 02:52:56;;;;;;;26.50;10.40;;;12.20;99.90;;;;;;5012711;28;20034;-74
2023/06/09 02:55:22;;;;;;;23.45;9.07;;;12.30;99.90;;;;;;5012518;28;20498;-73
2023/06/09 02:57:47;;;;;;;21.05;9.75;;;12.20;99.90;;;;;;5013663;28;20049;-73
2023/06/09 03:00:14;;;;;;;25.05;9.02;;;12.30;99.90;;;;;;5012465;28;20041;-73
2023/06/09 03:02:41;;;;;;;17.15;8.10;;;12.30;99.90;;;;;;5013893;28;20037;-73
2023/06/09 03:05:07;;;;;;;24.23;8.68;;;12.40;99.90;;;;;;5012217;28;20179;-73
2023/06/09 03:07:33;;;;;;;20.65;7.35;;;12.30;99.90;;;;;;4995900;28;20048;-73
2023/06/09 03:10:03;;;;;;;16.55;6.50;;;12.30;99.90;;;;;;5012359;28;20034;-73
2023/06/09 03:12:29;;;;;;;22.92;7.93;;;12.30;99.90;;;;;;4996092;28;20173;-72
2023/06/09 03:14:54;;;;;;;20.92;7.75;;;12.30;99.90;;;;;;5013413;28;20084;-72
2023/06/09 03:17:20;;;;;;;22.05;8.68;;;12.30;99.90;;;;;;5012964;28;20041;-72
2023/06/09 03:19:46;;;;;;;17.73;7.55;;;12.30;99.90;;;;;;5011609;28;20042;-72
2023/06/09 03:22:11;;;;;;;19.05;8.00;;;12.40;99.90;;;;;;4995274;28;20072;-72
2023/06/09 03:24:39;;;;;;;19.20;7.93;;;12.30;99.90;;;;;;4995218;28;20038;-73
2023/06/09 03:27:05;;;;;;;19.63;7.10;;;12.30;99.90;;;;;;5012128;28;20042;-73
2023/06/09 03:29:31;;;;;;;18.02;7.10;;;12.30;99.90;;;;;;5011781;28;20521;-72
2023/06/09 03:31:56;;;;;;;19.40;8.38;;;12.20;99.90;;;;;;5011506;28;20080;-73
2023/06/09 03:34:22;;;;;;;20.30;7.75;;;12.30;99.90;;;;;;5011924;28;20041;-72
2023/06/09 03:36:48;;;;;;;21.98;9.02;;;12.30;99.90;;;;;;5012876;28;20048;-72
2023/06/09 03:39:14;;;;;;;22.48;7.82;;;12.30;99.90;;;;;;5012018;28;20089;-72
2023/06/09 03:41:40;;;;;;;20.67;7.75;;;12.20;99.90;;;;;;5011867;28;20037;-73
2023/06/09 03:44:05;;;;;;;20.27;8.60;;;12.20;99.90;;;;;;5011998;28;20041;-73
2023/06/09 03:46:31;;;;;;;15.68;7.10;;;12.30;99.90;;;;;;5011620;28;20038;-72
2023/06/09 03:48:57;;;;;;;22.63;6.85;;;12.30;99.90;;;;;;5011420;28;20111;-72
2023/06/09 03:51:22;;;;;;;21.80;7.68;;;12.30;99.90;;;;;;5011624;28;20042;-73
2023/06/09 03:53:48;;;;;;;22.58;7.55;;;12.30;99.90;;;;;;4995284;28;20116;-72
2023/06/09 03:56:14;;;;;;;19.85;7.32;;;12.30;99.90;;;;;;5011184;28;20184;-73
2023/06/09 03:58:40;;;;;;;18.85;7.88;;;12.30;99.90;;;;;;5011419;28;20548;-73
2023/06/09 04:01:10;;;;;;;21.70;8.02;;;12.30;99.90;;;;;;5011345;28;20497;-72
2023/06/09 04:03:37;;;;;;;21.85;9.45;;;12.30;99.90;;;;;;4995070;28;20045;-72
2023/06/09 04:06:03;;;;;;;20.23;9.35;;;12.30;99.90;;;;;;5011463;28;20524;-72
2023/06/09 04:08:29;;;;;;;22.45;10.63;;;12.40;99.90;;;;;;5011648;28;20128;-72
2023/06/09 04:10:54;;;;;;;30.45;11.38;;;12.40;99.90;;;;;;5011249;28;20057;-72
2023/06/09 04:13:20;;;;;;;32.13;11.77;;;12.40;99.90;;;;;;5011264;28;20064;-73
2023/06/09 04:15:46;;;;;;;31.83;11.90;;;12.40;99.90;;;;;;5011370;28;20039;-73
2023/06/09 04:18:11;;;;;;;31.95;12.43;;;12.50;99.90;;;;;;4994595;28;20514;-72
2023/06/09 04:20:38;;;;;;;25.75;11.25;;;12.50;99.90;;;;;;5010738;28;20046;-72
2023/06/09 04:23:03;;;;;;;25.30;10.90;;;12.60;99.90;;;;;;4995032;28;20401;-73
2023/06/09 04:25:29;;;;;;;27.02;9.73;;;12.60;99.90;;;;;;5010940;28;20034;-73
2023/06/09 04:27:56;;;;;;;25.13;9.32;;;12.60;99.90;;;;;;5011118;28;20042;-73
2023/06/09 04:30:25;;;;;;;18.38;8.30;;;12.80;99.90;;;;;;5010737;28;20088;-73
2023/06/09 04:32:58;;;;;;;21.17;8.25;;;12.70;99.90;;;;;;4994756;28;20133;-72
2023/06/09 04:35:24;;;;;;;24.08;8.48;;;12.80;99.90;;;;;;4994316;28;20041;-72
2023/06/09 04:37:50;;;;;;;19.27;8.63;;;12.90;99.90;;;;;;5010578;28;20052;-72
2023/06/09 04:40:22;;;;;;;22.08;8.38;;;12.80;99.90;;;;;;5011816;28;20097;-72
2023/06/09 04:42:57;;;;;;;24.83;8.88;;;12.80;99.90;;;;;;5010489;28;20042;-73
2023/06/09 04:45:33;;;;;;;22.52;7.65;;;12.90;99.90;;;;;;4993747;28;20034;-73
2023/06/09 04:47:59;;;;;;;20.75;8.55;;;13.00;99.90;;;;;;5010617;28;20077;-73
2023/06/09 04:50:36;;;;;;;17.98;8.65;;;13.20;99.90;;;;;;5010567;28;20042;-72
2023/06/09 04:53:03;;;;;;;18.98;9.02;;;13.30;99.90;;;;;;4994622;28;20413;-72
2023/06/09 04:55:29;;;;;;;20.25;10.27;;;13.50;99.90;;;;;;5010404;28;20061;-74
2023/06/09 04:57:56;;;;;;;21.95;9.70;;;13.70;99.90;;;;;;5010322;28;20113;-72
2023/06/09 05:00:29;;;;;;;21.65;10.50;;;13.80;99.90;;;;;;5010305;28;20073;-72
2023/06/09 05:02:58;;;;;;;21.83;9.90;;;13.90;99.90;;;;;;5010210;28;20034;-73
2023/06/09 05:05:24;;;;;;;28.10;9.85;;;14.00;99.90;;;;;;5010471;28;20037;-72
2023/06/09 05:07:50;;;;;;;23.30;9.70;;;14.00;99.90;;;;;;5010586;28;20129;-73
2023/06/09 05:10:16;;;;;;;21.17;8.55;;;14.10;99.90;;;;;;4994245;28;20049;-72
2023/06/09 05:12:41;;;;;;;18.38;9.55;;;14.10;99.90;;;;;;5010826;28;20405;-72
2023/06/09 05:15:08;;;;;;;27.40;9.63;;;14.10;99.90;;;;;;5010445;28;20046;-73
2023/06/09 05:17:34;;;;;;;18.83;8.23;;;14.20;99.90;;;;;;5010122;28;20432;-72
2023/06/09 05:20:07;;;;;;;30.38;9.70;;;14.30;99.90;;;;;;4994063;28;20037;-73
2023/06/09 05:22:33;;;;;;;19.65;8.40;;;14.50;99.90;;;;;;5010163;28;20165;-72
2023/06/09 05:24:59;;;;;;;20.60;8.85;;;14.50;99.90;;;;;;5032981;22;20133;-72
2023/06/09 05:27:25;;;;;;;21.17;8.65;;;14.50;99.90;;;;;;5011462;28;20041;-73
2023/06/09 05:29:50;;;;;;;18.27;9.35;;;14.60;99.90;;;;;;5009464;28;20046;-72
2023/06/09 05:32:16;;;;;;;18.70;9.20;;;14.60;99.90;;;;;;5010809;28;20054;-72
2023/06/09 05:34:44;;;;;;;17.02;8.65;;;14.80;99.90;;;;;;5011368;28;20045;-72
2023/06/09 05:37:12;;;;;;;19.45;9.93;;;14.90;99.90;;;;;;5010034;28;20417;-72
2023/06/09 05:39:38;;;;;;;19.60;9.82;;;14.90;99.90;;;;;;5011288;28;20037;-72
2023/06/09 05:42:03;;;;;;;17.30;9.60;;;15.00;99.90;;;;;;5009935;28;20049;-73
2023/06/09 05:44:29;;;;;;;15.95;8.82;;;15.30;99.90;;;;;;5010365;28;20120;-73
2023/06/09 05:46:55;;;;;;;14.90;9.38;;;15.40;99.90;;;;;;5011276;28;20568;-73
2023/06/09 05:49:20;;;;;;;20.40;9.10;;;15.60;99.90;;;;;;5009771;28;20359;-73
2023/06/09 05:51:46;;;;;;;18.77;9.60;;;15.90;99.90;;;;;;5010308;28;20041;-73
2023/06/09 05:54:12;;;;;;;16.73;9.13;;;16.00;99.90;;;;;;5010115;28;20042;-73
2023/06/09 05:56:38;;;;;;;22.70;10.00;;;16.10;99.90;;;;;;5014306;28;20053;-73
2023/06/09 05:59:03;;;;;;;17.90;8.68;;;16.40;99.90;;;;;;5014922;28;20092;-72
2023/06/09 06:01:34;;;;;;;16.95;8.63;;;16.50;99.90;;;;;;5013773;28;20121;-72
2023/06/09 06:04:00;;;;;;;16.90;8.32;;;16.70;99.90;;;;;;5013566;28;20053;-72
2023/06/09 06:06:25;;;;;;;21.33;9.30;;;16.90;99.90;;;;;;5014653;28;20038;-73
2023/06/09 06:08:51;;;;;;;15.80;8.57;;;17.00;99.90;;;;;;5014795;28;20053;-73
2023/06/09 06:11:17;;;;;;;17.27;8.85;;;17.20;99.90;;;;;;5014856;28;20440;-73
2023/06/09 06:13:42;;;;;;;19.42;8.48;;;17.50;99.90;;;;;;5014854;28;20034;-74
2023/06/09 06:16:08;;;;;;;18.73;8.13;;;17.70;99.90;;;;;;5014709;28;20042;-73
2023/06/09 06:18:33;;;;;;;16.73;8.30;;;17.70;99.90;;;;;;5013298;28;20052;-73
2023/06/09 06:20:59;;;;;;;12.93;7.63;;;18.00;99.90;;;;;;5015000;28;20045;-73
2023/06/09 06:23:25;;;;;;;14.02;8.35;;;18.10;99.90;;;;;;5014657;28;20117;-74
2023/06/09 06:25:50;;;;;;;17.10;7.38;;;17.90;99.90;;;;;;5013452;28;20045;-74
2023/06/09 06:28:16;;;;;;;14.98;7.60;;;18.30;99.90;;;;;;5013498;28;20493;-73
2023/06/09 06:30:42;;;;;;;12.38;7.20;;;18.40;99.90;;;;;;5014331;28;20100;-73
2023/06/09 06:33:08;;;;;;;17.25;6.65;;;18.40;99.90;;;;;;5014214;28;20046;-73
2023/06/09 06:35:34;;;;;;;15.77;6.97;;;18.40;99.90;;;;;;5014503;28;20083;-73
2023/06/09 06:38:01;;;;;;;12.00;6.43;;;18.70;99.90;;;;;;5013146;28;20045;-72
2023/06/09 06:40:28;;;;;;;13.60;6.50;;;18.70;99.90;;;;;;5014163;28;20390;-72
2023/06/09 06:42:53;;;;;;;15.07;6.70;;;18.90;99.90;;;;;;5013191;28;20466;-72
2023/06/09 06:45:19;;;;;;;13.30;7.45;;;19.00;99.90;;;;;;5014313;28;20117;-74
2023/06/09 06:47:45;;;;;;;14.55;6.20;;;19.00;99.90;;;;;;5012677;28;20523;-72
2023/06/09 06:50:14;;;;;;;18.33;6.97;;;19.30;99.90;;;;;;5014231;28;20041;-72
2023/06/09 06:52:41;;;;;;;17.55;6.82;;;19.30;99.90;;;;;;5014251;28;20037;-72
2023/06/09 06:55:07;;;;;;;13.13;5.82;;;19.50;99.90;;;;;;5014073;28;20049;-72
2023/06/09 06:57:36;;;;;;;15.40;6.53;;;19.70;99.90;;;;;;5013890;28;20131;-72
2023/06/09 07:00:13;;;;;;;10.52;6.03;;;19.80;99.90;;;;;;5013936;28;20034;-73
2023/06/09 07:02:39;;;;;;;14.65;5.63;;;19.90;99.90;;;;;;5012956;28;20095;-73
2023/06/09 07:05:09;;;;;;;13.43;6.28;;;20.20;99.90;;;;;;5013900;28;20042;-73
2023/06/09 07:07:34;;;;;;;11.55;5.47;;;20.10;99.90;;;;;;5012489;28;20046;-71
2023/06/09 07:10:03;;;;;;;12.15;5.47;;;20.20;99.90;;;;;;5013380;28;20100;-70
2023/06/09 07:12:29;;;;;;;13.70;6.30;;;20.20;99.90;;;;;;5013746;28;20042;-70
2023/06/09 07:14:56;;;;;;;14.05;5.93;;;20.50;99.90;;;;;;5013490;28;20470;-70
2023/06/09 07:17:22;;;;;;;12.70;5.43;;;20.50;99.90;;;;;;5013389;28;20472;-72
2023/06/09 07:19:47;;;;;;;13.27;5.97;;;20.90;99.90;;;;;;5013449;28;20099;-71
2023/06/09 07:22:13;;;;;;;12.95;6.00;;;20.90;99.90;;;;;;5013478;28;20038;-71
2023/06/09 07:24:38;;;;;;;12.07;4.97;;;21.10;99.90;;;;;;5013182;28;20038;-71
2023/06/09 07:27:05;;;;;;;10.68;4.50;;;21.20;99.90;;;;;;5013284;28;20121;-71
2023/06/09 07:29:34;;;;;;;12.95;5.15;;;21.10;99.90;;;;;;5013137;28;20422;-71
2023/06/09 07:32:00;;;;;;;14.60;5.75;;;21.30;99.90;;;;;;5012259;28;20042;-73
2023/06/09 07:34:27;;;;;;;11.40;5.57;;;21.60;99.90;;;;;;5012118;28;20383;-72
2023/06/09 07:36:53;;;;;;;9.68;5.15;;;21.80;99.90;;;;;;5012084;28;20045;-72
2023/06/09 07:39:20;;;;;;;10.43;5.43;;;21.90;98.40;;;;;;5013109;28;20564;-71
2023/06/09 07:41:45;;;;;;;13.57;5.88;;;22.00;97.50;;;;;;5013119;28;20041;-72
2023/06/09 07:44:11;;;;;;;12.18;5.10;;;22.10;97.50;;;;;;5013041;28;20053;-71
2023/06/09 07:46:37;;;;;;;9.68;5.30;;;22.20;97.20;;;;;;5013031;28;20244;-72
2023/06/09 07:49:02;;;;;;;11.90;5.60;;;22.50;96.60;;;;;;5013042;28;20060;-71
2023/06/09 07:51:29;;;;;;;11.82;5.38;;;22.40;96.10;;;;;;4995533;28;20133;-72
2023/06/09 07:53:54;;;;;;;11.95;4.95;;;22.40;96.30;;;;;;5011818;28;20033;-71
2023/06/09 07:56:20;;;;;;;13.50;4.60;;;22.50;95.00;;;;;;5012620;28;20413;-71
2023/06/09 07:58:46;;;;;;;9.02;4.72;;;22.60;94.70;;;;;;5011444;28;20049;-71
2023/06/09 08:01:12;;;;;;;11.85;4.53;;;22.80;94.90;;;;;;4995205;28;20533;-72
2023/06/09 08:03:38;;;;;;;12.57;5.70;;;23.00;94.80;;;;;;5012773;28;20038;-73
2023/06/09 08:06:04;;;;;;;11.77;5.47;;;23.10;94.20;;;;;;5011365;28;20071;-73
2023/06/09 08:08:31;;;;;;;11.75;5.10;;;23.40;94.00;;;;;;5012728;28;20164;-73
2023/06/09 08:10:57;;;;;;;13.73;5.35;;;23.20;92.70;;;;;;5011332;28;20068;-73
2023/06/09 08:13:23;;;;;;;11.98;5.32;;;23.00;92.40;;;;;;5011179;28;20045;-73
2023/06/09 08:15:49;;;;;;;9.73;4.43;;;23.10;92.80;;;;;;5012366;28;20498;-73
2023/06/09 08:18:15;;;;;;;10.82;5.13;;;23.30;92.90;;;;;;4994526;28;20042;-73
2023/06/09 08:20:41;;;;;;;12.15;5.18;;;23.20;92.10;;;;;;5012379;28;20073;-73
2023/06/09 08:23:10;;;;;;;9.05;4.40;;;23.40;92.10;;;;;;5011093;28;20069;-73
2023/06/09 08:25:35;;;;;;;18.60;6.05;;;23.20;91.70;;;;;;5011998;28;20044;-73
2023/06/09 08:28:01;;;;;;;11.45;5.63;;;23.20;91.20;;;;;;5010957;28;20414;-73
2023/06/09 08:30:27;;;;;;;9.20;5.00;;;23.30;90.90;;;;;;5010859;28;20088;-75
2023/06/09 08:32:53;;;;;;;13.35;5.00;;;23.40;90.80;;;;;;4995077;28;20096;-74
2023/06/09 08:35:18;;;;;;;9.82;5.50;;;23.50;91.00;;;;;;5012317;28;20069;-74
2023/06/09 08:37:44;;;;;;;15.32;5.60;;;23.60;91.40;;;;;;4994653;28;20402;-74
2023/06/09 08:40:11;;;;;;;9.75;4.88;;;23.60;90.00;;;;;;5011028;28;20049;-74
2023/06/09 08:42:38;;;;;;;9.80;5.05;;;23.60;89.50;;;;;;5012280;28;20560;-74
2023/06/09 08:45:05;;;;;;;12.02;5.18;;;23.70;88.60;;;;;;5010959;28;20038;-74
2023/06/09 08:47:32;;;;;;;12.63;4.60;;;23.90;88.80;;;;;;5012435;28;20046;-74
2023/06/09 08:49:59;;;;;;;15.52;5.70;;;24.00;88.90;;;;;;5011954;28;20521;-73
2023/06/09 08:52:26;;;;;;;11.10;5.25;;;24.00;88.60;;;;;;5012082;28;20053;-73
2023/06/09 08:54:54;;;;;;;9.30;5.25;;;24.20;89.00;;;;;;5011806;28;20073;-73
2023/06/09 08:57:20;;;;;;;14.88;6.18;;;24.30;87.90;;;;;;5011773;28;20509;-73
2023/06/09 08:59:47;;;;;;;12.65;5.30;;;24.30;87.40;;;;;;5012009;28;20042;-73
2023/06/09 09:02:13;;;;;;;11.48;5.85;;;24.50;86.60;;;;;;5011992;28;20545;-73
2023/06/09 09:04:39;;;;;;;13.10;5.70;;;24.50;84.20;;;;;;5010821;28;20038;-73
2023/06/09 09:07:08;;;;;;;12.65;5.10;;;24.60;86.30;;;;;;5011863;28;20060;-71
2023/06/09 09:09:33;;;;;;;9.60;5.60;;;24.90;87.80;;;;;;5011648;28;20414;-73
2023/06/09 09:12:01;;;;;;;9.98;5.15;;;25.00;84.90;;;;;;5009993;28;20044;-73
2023/06/09 09:14:27;;;;;;;10.80;4.70;;;24.90;81.80;;;;;;5011616;28;20081;-73
2023/06/09 09:16:52;;;;;;;12.30;4.85;;;25.10;82.50;;;;;;5011575;28;20441;-73
2023/06/09 09:19:28;;;;;;;9.50;5.10;;;25.30;79.90;;;;;;5011646;28;20042;-73
2023/06/09 09:22:01;;;;;;;10.85;5.07;;;25.40;79.00;;;;;;5011750;28;20038;-73
2023/06/09 09:24:31;;;;;;;9.48;4.82;;;25.40;78.30;;;;;;5011801;28;20046;-74
2023/06/09 09:26:57;;;;;;;8.82;5.50;;;25.60;76.90;;;;;;5011641;28;20096;-74
2023/06/09 09:29:26;;;;;;;12.73;4.93;;;25.60;76.10;;;;;;5011642;28;20034;-73
2023/06/09 09:32:01;;;;;;;9.95;4.60;;;25.60;75.70;;;;;;5015638;28;20042;-73
2023/06/09 09:34:30;;;;;;;8.27;5.03;;;25.60;72.90;;;;;;5015391;28;20045;-73
2023/06/09 09:36:56;;;;;;;7.60;4.05;;;25.60;72.30;;;;;;5015400;28;20394;-74
2023/06/09 09:39:22;;;;;;;9.35;4.30;;;25.40;70.50;;;;;;5015444;28;20037;-73
2023/06/09 09:42:07;;;;;;;10.10;5.10;;;25.40;70.50;;;;;;5015023;28;20147;-73
2023/06/09 09:44:40;;;;;;;12.02;4.50;;;25.20;69.90;;;;;;4995680;28;20049;-71
2023/06/09 09:47:12;;;;;;;10.70;3.97;;;25.30;69.20;;;;;;4995518;28;20038;-74
2023/06/09 09:49:47;;;;;;;8.93;4.70;;;25.40;67.80;;;;;;4994628;28;20052;-74
2023/06/09 09:52:13;;;;;;;9.07;4.18;;;25.40;69.40;;;;;;4995826;28;20234;-73
2023/06/09 09:54:38;;;;;;;9.35;4.57;;;25.40;69.50;;;;;;4995491;28;20154;-73
2023/06/09 09:57:06;;;;;;;8.65;4.07;;;25.60;68.10;;;;;;4995400;28;20049;-73
2023/06/09 09:59:31;;;;;;;8.52;4.20;;;25.60;66.70;;;;;;4985038;28;20117;-73
2023/06/09 10:01:57;;;;;;;13.35;4.90;;;25.70;66.30;;;;;;5010063;28;20118;-73
2023/06/09 10:04:24;;;;;;;6.10;4.00;;;25.80;68.70;;;;;;5011849;28;20092;-72
2023/06/09 10:07:03;;;;;;;6.18;4.25;;;26.10;67.70;;;;;;5014806;28;20041;-73
2023/06/09 10:09:28;;;;;;;14.02;4.78;;;26.00;66.80;;;;;;5013606;28;20044;-73
2023/06/09 10:11:55;;;;;;;6.95;4.07;;;26.10;65.00;;;;;;5014765;28;20112;-73
2023/06/09 10:14:21;;;;;;;5.93;4.03;;;26.20;63.80;;;;;;5014399;28;20036;-73
2023/06/09 10:16:51;;;;;;;9.43;4.10;;;26.10;61.30;;;;;;5014309;28;20029;-73
2023/06/09 10:19:18;;;;;;;6.65;3.30;;;26.20;61.40;;;;;;5014377;28;20124;-73
2023/06/09 10:21:45;;;;;;;6.07;3.60;;;25.90;60.00;;;;;;5014718;28;20037;-72
2023/06/09 10:24:12;;;;;;;6.75;3.58;;;26.00;60.20;;;;;;5014609;28;20042;-73
2023/06/09 10:26:38;;;;;;;9.65;3.95;;;26.10;60.40;;;;;;5014153;28;20041;-73
2023/06/09 10:29:08;;;;;;;6.72;3.88;;;26.20;60.60;;;;;;5013761;28;20069;-73
2023/06/09 10:31:38;;;;;;;6.72;3.80;;;26.30;59.50;;;;;;5011827;28;20042;-73
2023/06/09 10:34:07;;;;;;;7.43;3.55;;;26.20;58.40;;;;;;5013347;28;20046;-73
2023/06/09 10:36:40;;;;;;;6.43;4.03;;;26.30;58.20;;;;;;5012991;28;20074;-73
2023/06/09 10:39:19;;;;;;;8.07;4.18;;;26.30;57.40;;;;;;5012905;28;20046;-72
2023/06/09 10:41:59;;;;;;;6.45;4.15;;;26.30;56.00;;;;;;5011843;28;20052;-73
2023/06/09 10:44:54;;;;;;;6.45;4.03;;;26.30;56.30;;;;;;5014317;28;20048;-73
2023/06/09 10:47:55;;;;;;;7.82;4.18;;;26.40;55.80;;;;;;5013026;28;20052;-72
2023/06/09 10:50:22;;;;;;;8.13;4.07;;;26.30;54.30;;;;;;4975824;28;20077;-72
2023/06/09 10:53:02;;;;;;;7.68;3.63;;;26.30;54.70;;;;;;5005214;28;20093;-73
2023/06/09 10:55:30;;;;;;;11.43;4.90;;;26.40;54.30;;;;;;5012860;28;20041;-72
2023/06/09 10:57:57;;;;;;;9.77;4.18;;;26.40;53.90;;;;;;5013778;28;20045;-72
2023/06/09 11:00:23;;;;;;;6.10;3.75;;;26.50;54.10;;;;;;5012952;28;20077;-73
2023/06/09 11:03:28;;;;;;;11.20;4.72;;;26.50;53.80;;;;;;5014106;28;20037;-73
2023/06/09 11:06:00;;;;;;;6.20;3.40;;;26.50;53.00;;;;;;5007436;28;20121;-73
2023/06/09 11:08:26;;;;;;;9.80;4.32;;;26.60;53.70;;;;;;5013576;28;20502;-73
2023/06/09 11:10:52;;;;;;;11.00;4.13;;;26.60;53.10;;;;;;5013379;28;20053;-73
2023/06/09 11:13:38;;;;;;;11.93;4.30;;;26.60;52.80;;;;;;5013267;28;20046;-73
2023/06/09 11:16:04;;;;;;;6.47;3.75;;;26.60;52.20;;;;;;4994590;28;20431;-73
2023/06/09 11:18:30;;;;;;;8.75;3.83;;;26.80;52.50;;;;;;5007391;28;20042;-73
2023/06/09 11:21:18;;;;;;;8.07;3.53;;;26.70;51.10;;;;;;5011971;28;20038;-73
2023/06/09 11:24:00;;;;;;;9.35;4.00;;;26.80;52.00;;;;;;5013473;28;20038;-73
2023/06/09 11:26:27;;;;;;;8.77;4.10;;;26.70;51.40;;;;;;5034716;22;20128;-73
2023/06/09 11:28:53;;;;;;;4.82;3.50;;;26.80;51.10;;;;;;5011354;28;20512;-74
2023/06/09 11:31:19;;;;;;;6.97;3.92;;;26.70;50.20;;;;;;5011873;28;20066;-73
2023/06/09 11:33:46;;;;;;;8.55;4.55;;;26.70;50.10;;;;;;4995560;28;20052;-74
2023/06/09 11:36:17;;;;;;;7.07;4.03;;;26.80;50.70;;;;;;5011803;28;20033;-72
2023/06/09 11:38:43;;;;;;;8.18;3.80;;;26.80;50.50;;;;;;5011446;28;20046;-71
2023/06/09 11:41:11;;;;;;;6.00;3.72;;;26.70;49.40;;;;;;5011788;28;20111;-72
2023/06/09 11:43:37;;;;;;;7.65;3.60;;;26.80;49.00;;;;;;4995475;28;20100;-72
2023/06/09 11:46:03;;;;;;;7.53;4.55;;;26.80;48.80;;;;;;5011561;28;20042;-71
2023/06/09 11:48:30;;;;;;;8.02;3.65;;;26.70;48.50;;;;;;5012761;28;20041;-71
2023/06/09 11:50:55;;;;;;;7.35;3.88;;;26.70;48.60;;;;;;5011957;28;20412;-72
2023/06/09 11:53:24;;;;;;;9.20;4.40;;;26.70;48.30;;;;;;5011390;28;20046;-72
2023/06/09 11:55:58;;;;;;;12.27;5.07;;;26.80;48.20;;;;;;4995346;28;20080;-72
2023/06/09 11:58:24;;;;;;;10.52;4.18;;;26.80;49.40;;;;;;5011471;28;20070;-72
2023/06/09 12:00:50;;;;;;;8.70;4.32;;;27.00;48.50;;;;;;5013058;28;20088;-72
2023/06/09 12:03:19;;;;;;;7.90;3.90;;;26.90;48.10;;;;;;5012899;28;20425;-70
2023/06/09 12:05:51;;;;;;;6.18;4.55;;;27.00;48.40;;;;;;5011551;28;20521;-72
2023/06/09 12:08:18;;;;;;;7.15;4.78;;;27.10;48.40;;;;;;5012633;28;20077;-71
2023/06/09 12:10:44;;;;;;;5.65;3.60;;;27.00;47.20;;;;;;5012482;28;20049;-71
2023/06/09 12:13:10;;;;;;;7.45;4.40;;;27.00;47.80;;;;;;5011550;28;20125;-72
2023/06/09 12:15:35;;;;;;;9.85;4.07;;;27.00;48.30;;;;;;5012718;28;20053;-71
2023/06/09 12:18:02;;;;;;;7.82;4.13;;;27.00;48.50;;;;;;5012582;28;20515;-71
2023/06/09 12:20:29;;;;;;;7.35;4.82;;;27.10;48.50;;;;;;5011339;28;20120;-72
2023/06/09 12:23:06;;;;;;;7.15;4.72;;;27.10;48.50;;;;;;5012496;28;20053;-69
2023/06/09 12:25:38;;;;;;;7.13;4.45;;;27.10;49.00;;;;;;5012263;28;20041;-71
2023/06/09 12:28:22;;;;;;;8.55;4.90;;;27.10;49.30;;;;;;5012592;28;20041;-71
2023/06/09 12:30:53;;;;;;;8.23;4.32;;;27.20;49.90;;;;;;5012218;28;20559;-72
2023/06/09 12:33:29;;;;;;;12.23;5.50;;;27.10;49.30;;;;;;4994884;28;20588;-71
2023/06/09 12:36:03;;;;;;;8.20;4.90;;;27.00;49.70;;;;;;5012301;28;20046;-72
2023/06/09 12:38:28;;;;;;;7.78;4.20;;;27.10;49.10;;;;;;5011013;28;20041;-70
2023/06/09 12:41:08;;;;;;;8.88;4.50;;;27.10;49.80;;;;;;5012264;28;20038;-70
2023/06/09 12:43:45;;;;;;;11.80;5.10;;;27.00;49.80;;;;;;5010952;28;20068;-71